createdAt,value
2018-12-23T00:02:08.217Z,3.81
2018-12-23T00:07:14.373Z,3.98
2018-12-23T00:12:21.006Z,3.81
2018-12-23T00:17:27.185Z,4.12
2018-12-23T00:22:33.525Z,4.14
2018-12-23T00:27:39.659Z,4.37
2018-12-23T00:32:45.882Z,4.30
2018-12-23T00:37:51.997Z,3.93
2018-12-23T00:42:58.293Z,3.70
2018-12-23T00:48:04.422Z,3.32
2018-12-23T00:53:10.605Z,4.38
2018-12-23T00:58:16.847Z,4.62
2018-12-23T01:03:22.902Z,4.18
2018-12-23T01:08:29.177Z,4.18
2018-12-23T01:13:35.360Z,4.84
2018-12-23T01:18:41.528Z,3.84
2018-12-23T01:23:47.916Z,4.53
2018-12-23T01:28:54.059Z,4.14
2018-12-23T01:34:00.313Z,3.95
2018-12-23T01:39:06.469Z,4.43
2018-12-23T01:44:12.626Z,4.28
2018-12-23T01:49:18.737Z,4.97
2018-12-23T01:54:25.002Z,4.45
2018-12-23T01:59:31.116Z,4.25
2018-12-23T02:04:37.267Z,4.32
2018-12-23T02:09:43.403Z,4.79
2018-12-23T02:14:49.532Z,4.08
2018-12-23T02:19:55.657Z,3.82
2018-12-23T02:25:01.986Z,3.89
2018-12-23T02:30:08.143Z,4.63
2018-12-23T02:35:14.289Z,4.16
2018-12-23T02:40:20.422Z,4.14
2018-12-23T02:45:26.570Z,4.43
2018-12-23T02:50:32.668Z,4.50
2018-12-23T02:55:38.822Z,3.76
2018-12-23T03:00:44.965Z,3.63
2018-12-23T03:05:51.112Z,4.53
2018-12-23T03:10:57.228Z,4.03
2018-12-23T03:16:03.380Z,3.83
2018-12-23T03:21:09.523Z,3.83
2018-12-23T03:26:15.749Z,3.65
2018-12-23T03:31:21.930Z,3.43
2018-12-23T03:36:28.288Z,4.20
2018-12-23T03:41:34.435Z,3.96
2018-12-23T03:46:40.696Z,4.27
2018-12-23T03:51:46.845Z,4.48
2018-12-23T03:56:52.955Z,5.62
2018-12-23T04:01:59.092Z,4.80
2018-12-23T04:07:05.310Z,5.08
2018-12-23T04:12:11.415Z,4.68
2018-12-23T04:17:17.571Z,4.96
2018-12-23T04:22:23.705Z,5.06
2018-12-23T04:27:29.855Z,5.38
2018-12-23T04:32:35.957Z,4.46
2018-12-23T04:37:42.196Z,4.57
2018-12-23T04:42:48.306Z,5.18
2018-12-23T04:47:54.461Z,4.63
2018-12-23T04:53:00.611Z,4.50
2018-12-23T04:58:06.737Z,4.19
2018-12-23T05:03:12.980Z,4.33
2018-12-23T05:08:19.252Z,4.37
2018-12-23T05:13:25.378Z,3.94
2018-12-23T05:18:31.532Z,4.24
2018-12-23T05:23:37.697Z,4.06
2018-12-23T05:28:43.851Z,3.87
2018-12-23T05:33:49.969Z,3.27
2018-12-23T05:38:56.176Z,4.30
2018-12-23T05:44:02.300Z,3.83
2018-12-23T05:49:08.476Z,4.91
2018-12-23T05:54:14.613Z,4.97
2018-12-23T05:59:20.849Z,4.28
2018-12-23T06:04:26.967Z,4.53
2018-12-23T06:09:33.116Z,4.03
2018-12-23T06:14:39.202Z,5.23
2018-12-23T06:19:45.349Z,5.56
2018-12-23T06:24:51.497Z,5.07
2018-12-23T06:29:57.682Z,5.36
2018-12-23T06:35:03.822Z,5.71
2018-12-23T06:40:10.012Z,5.61
2018-12-23T06:45:16.146Z,5.73
2018-12-23T06:50:22.417Z,5.96
2018-12-23T06:55:28.533Z,5.12
2018-12-23T07:00:34.682Z,4.69
2018-12-23T07:05:40.806Z,5.72
2018-12-23T07:10:47.071Z,5.27
2018-12-23T07:15:53.217Z,5.40
2018-12-23T07:20:59.525Z,5.56
2018-12-23T07:26:05.649Z,5.44
2018-12-23T07:31:11.911Z,4.82
2018-12-23T07:36:18.068Z,5.08
2018-12-23T07:41:24.271Z,5.34
2018-12-23T07:46:30.457Z,5.63
2018-12-23T07:51:36.692Z,4.89
2018-12-23T07:56:42.806Z,4.76
2018-12-23T08:01:48.941Z,5.50
2018-12-23T08:06:55.074Z,6.39
2018-12-23T08:12:01.219Z,5.19
2018-12-23T08:17:07.334Z,5.67
2018-12-23T08:22:13.442Z,5.92
2018-12-23T08:27:19.544Z,7.01
2018-12-23T08:32:25.726Z,6.04
2018-12-23T08:37:31.911Z,5.77
2018-12-23T08:42:38.060Z,7.35
2018-12-23T08:47:44.298Z,7.46
2018-12-23T08:52:50.453Z,6.32
2018-12-23T08:57:56.592Z,6.90
2018-12-23T09:03:02.777Z,6.89
2018-12-23T09:08:08.956Z,7.31
2018-12-23T09:13:15.269Z,10.58
2018-12-23T09:18:21.414Z,11.15
2018-12-23T09:23:27.610Z,9.98
2018-12-23T09:28:33.717Z,14.30
2018-12-23T09:33:39.880Z,12.13
2018-12-23T09:38:46.016Z,17.11
2018-12-23T09:43:52.183Z,14.18
2018-12-23T09:48:59.228Z,14.79
2018-12-23T09:54:05.420Z,21.20
2018-12-23T09:59:11.549Z,15.85
2018-12-23T10:04:17.777Z,14.65
2018-12-23T10:09:23.890Z,22.18
2018-12-23T10:14:30.070Z,17.26
2018-12-23T10:19:36.197Z,17.39
2018-12-23T10:24:42.361Z,16.45
2018-12-23T10:29:48.476Z,15.79
2018-12-23T10:34:54.675Z,16.43
2018-12-23T10:40:00.946Z,19.88
2018-12-23T10:45:07.253Z,17.64
2018-12-23T10:50:13.368Z,21.56
2018-12-23T10:55:19.583Z,21.36
2018-12-23T11:00:25.778Z,22.57
2018-12-23T11:05:31.946Z,26.84
2018-12-23T11:10:38.109Z,15.61
2018-12-23T11:15:44.358Z,24.46
2018-12-23T11:20:50.558Z,23.01
2018-12-23T11:25:56.838Z,17.30
2018-12-23T11:31:03.090Z,23.23
2018-12-23T11:36:09.300Z,17.95
2018-12-23T11:41:15.550Z,12.84
2018-12-23T11:46:21.681Z,13.43
2018-12-23T11:51:27.877Z,20.98
2018-12-23T11:56:36.934Z,13.23
2018-12-23T12:01:43.074Z,16.80
2018-12-23T12:06:49.259Z,14.67
2018-12-23T12:11:55.381Z,11.71
2018-12-23T12:17:01.596Z,11.58
2018-12-23T12:22:07.779Z,12.68
2018-12-23T12:27:13.956Z,10.48
2018-12-23T12:32:20.135Z,8.33
2018-12-23T12:37:26.286Z,9.91
2018-12-23T12:42:32.502Z,9.02
2018-12-23T12:47:40.090Z,9.03
2018-12-23T12:52:46.266Z,8.72
2018-12-23T12:57:52.431Z,8.48
2018-12-23T13:02:59.489Z,9.03
2018-12-23T13:08:05.630Z,12.09
2018-12-23T13:13:11.845Z,9.73
2018-12-23T13:18:17.956Z,9.11
2018-12-23T13:23:24.096Z,11.17
2018-12-23T13:28:30.260Z,10.52
2018-12-23T13:33:36.435Z,10.25
2018-12-23T13:38:42.591Z,10.58
2018-12-23T13:43:48.814Z,10.73
2018-12-23T13:48:54.985Z,11.86
2018-12-23T13:54:01.244Z,12.89
2018-12-23T13:59:07.398Z,12.04
2018-12-23T14:04:13.909Z,12.90
2018-12-23T14:09:20.053Z,12.29
2018-12-23T14:14:26.208Z,13.03
2018-12-23T14:19:32.343Z,13.57
2018-12-23T14:24:38.507Z,10.24
2018-12-23T14:29:44.667Z,9.86
2018-12-23T14:34:50.828Z,10.00
2018-12-23T14:39:56.979Z,11.19
2018-12-23T14:45:03.528Z,11.10
2018-12-23T14:50:09.658Z,11.25
2018-12-23T14:55:15.861Z,13.77
2018-12-23T15:00:22.020Z,12.60
2018-12-23T15:05:28.172Z,11.66
2018-12-23T15:10:34.330Z,11.59
2018-12-23T15:15:40.492Z,15.37
2018-12-23T15:20:46.618Z,12.92
2018-12-23T15:25:52.829Z,13.27
2018-12-23T15:30:58.968Z,14.43
2018-12-23T15:36:05.186Z,15.68
2018-12-23T15:41:11.456Z,12.37
2018-12-23T15:46:17.633Z,11.77
2018-12-23T15:51:23.866Z,12.39
2018-12-23T15:56:30.118Z,14.54
2018-12-23T16:01:36.181Z,14.74
2018-12-23T16:06:42.386Z,10.80
2018-12-23T16:11:48.585Z,12.20
2018-12-23T16:16:54.787Z,10.96
2018-12-23T16:22:00.952Z,8.73
2018-12-23T16:27:07.202Z,9.72
2018-12-23T16:32:13.397Z,11.72
2018-12-23T16:37:19.522Z,15.42
2018-12-23T16:42:25.652Z,12.41
2018-12-23T16:47:31.791Z,14.27
2018-12-23T16:52:37.982Z,12.78
2018-12-23T16:57:44.163Z,11.66
2018-12-23T17:02:50.383Z,11.18
2018-12-23T17:07:56.672Z,14.58
2018-12-23T17:13:02.914Z,13.94
2018-12-23T17:18:09.059Z,9.58
2018-12-23T17:23:15.319Z,8.74
2018-12-23T17:28:21.551Z,8.77
2018-12-23T17:33:27.735Z,8.29
2018-12-23T17:38:34.211Z,8.58
2018-12-23T17:43:40.418Z,8.85
2018-12-23T17:48:46.616Z,11.09
2018-12-23T17:53:52.922Z,10.90
2018-12-23T17:58:59.079Z,8.98
2018-12-23T18:04:05.986Z,9.58
2018-12-23T18:09:12.121Z,7.20
2018-12-23T18:14:18.306Z,7.12
2018-12-23T18:19:24.477Z,7.11
2018-12-23T18:24:30.607Z,7.35
2018-12-23T18:29:36.732Z,8.09
2018-12-23T18:34:42.898Z,6.35
2018-12-23T18:39:49.075Z,6.84
2018-12-23T18:44:55.242Z,7.18
2018-12-23T18:50:01.384Z,6.61
2018-12-23T18:55:07.550Z,7.74
2018-12-23T19:00:13.670Z,6.69
2018-12-23T19:05:19.831Z,7.09
2018-12-23T19:10:26.005Z,10.30
2018-12-23T19:15:32.209Z,10.67
2018-12-23T19:20:38.345Z,10.02
2018-12-23T19:25:44.521Z,10.89
2018-12-23T19:30:50.673Z,10.26
2018-12-23T19:35:56.886Z,9.74
2018-12-23T19:41:03.032Z,6.75
2018-12-23T19:46:09.310Z,6.69
2018-12-23T19:51:15.494Z,6.56
2018-12-23T19:56:21.718Z,6.24
2018-12-23T20:01:27.993Z,4.89
2018-12-23T20:06:34.205Z,3.37
2018-12-23T20:11:40.354Z,3.46
2018-12-23T20:16:47.461Z,3.46
2018-12-23T20:21:53.652Z,4.31
2018-12-23T20:26:59.818Z,4.68
2018-12-23T20:32:05.952Z,6.07
2018-12-23T20:37:12.129Z,5.67
2018-12-23T20:42:18.341Z,6.70
2018-12-23T20:47:24.512Z,6.26
2018-12-23T20:52:30.669Z,5.18
2018-12-23T20:57:36.868Z,3.59
2018-12-23T21:02:42.998Z,2.93
2018-12-23T21:07:49.221Z,2.29
2018-12-23T21:12:55.349Z,2.12
2018-12-23T21:18:01.539Z,1.94
2018-12-23T21:23:07.649Z,2.24
2018-12-23T21:28:13.822Z,1.74
2018-12-23T21:33:19.950Z,1.64
2018-12-23T21:38:26.457Z,1.60
2018-12-23T21:43:32.611Z,2.05
2018-12-23T21:48:38.764Z,1.11
2018-12-23T21:53:44.909Z,1.13
2018-12-23T21:58:51.053Z,1.10
2018-12-23T22:03:57.171Z,2.03
2018-12-23T22:09:03.488Z,2.13
2018-12-23T22:14:09.606Z,2.20
2018-12-23T22:19:16.916Z,2.30
2018-12-23T22:24:23.041Z,2.68
2018-12-23T22:29:29.240Z,2.54
2018-12-23T22:34:35.484Z,2.39
2018-12-23T22:39:42.146Z,2.02
2018-12-23T22:44:47.345Z,1.48
2018-12-23T22:49:53.733Z,1.34
2018-12-23T22:54:59.895Z,1.36
2018-12-23T23:00:06.056Z,1.58
2018-12-23T23:05:12.175Z,1.72
2018-12-23T23:10:18.320Z,1.41
2018-12-23T23:15:24.486Z,1.79
2018-12-23T23:20:30.686Z,1.86
2018-12-23T23:25:36.811Z,1.85
2018-12-23T23:30:43.097Z,1.78
2018-12-23T23:35:49.237Z,1.81
2018-12-23T23:40:55.367Z,1.80
2018-12-23T23:46:01.504Z,1.53
2018-12-23T23:51:07.659Z,1.57
2018-12-23T23:56:13.804Z,1.66
